Time,TemperatureF,DewpointF,PressureIn,WindDirection,WindDirectionDegrees,WindSpeedMPH,WindSpeedGustMPH,Humidity,HourlyPrecipIn,Conditions,Clouds,dailyrainin,SolarRadiationWatts/m^2,SoftwareType,DateUTC
2013-11-16 00:04:00,50.2,43.9,29.93,WSW,247,2.0,7.0,79,0.00,,,0.00,0.0,meteohub,2013-11-16 08:04:00,
2013-11-16 00:09:00,50.2,44.2,29.93,SW,232,0.0,7.0,80,0.00,,,0.00,0.0,meteohub,2013-11-16 08:09:00,
2013-11-16 00:14:00,50.0,44.1,29.93,SW,220,0.0,7.0,80,0.00,,,0.00,0.0,meteohub,2013-11-16 08:14:00,
2013-11-16 00:19:00,49.8,43.9,29.92,SW,220,0.0,4.0,80,0.00,,,0.00,0.0,meteohub,2013-11-16 08:19:00,
2013-11-16 00:25:00,49.8,43.9,29.92,WNW,294,1.0,4.0,80,0.00,,,0.00,0.0,meteohub,2013-11-16 08:25:00,
2013-11-16 00:30:00,49.6,43.7,29.92,WSW,255,0.0,2.0,80,0.00,,,0.00,0.0,meteohub,2013-11-16 08:30:00,
2013-11-16 00:35:00,49.6,44.1,29.91,WNW,297,0.0,2.0,81,0.00,,,0.00,0.0,meteohub,2013-11-16 08:35:00,
2013-11-16 00:40:00,49.6,44.1,29.91,SSW,211,0.0,8.0,81,0.00,,,0.00,0.0,meteohub,2013-11-16 08:40:00,
2013-11-16 00:45:00,49.6,44.4,29.91,NNW,330,1.0,8.0,82,0.00,,,0.00,0.0,meteohub,2013-11-16 08:45:00,
2013-11-16 00:50:00,49.6,44.4,29.91,WNW,302,0.0,5.0,82,0.00,,,0.00,0.0,meteohub,2013-11-16 08:50:00,
2013-11-16 00:55:00,49.5,44.6,29.91,SE,134,0.0,5.0,83,0.00,,,0.00,0.0,meteohub,2013-11-16 08:55:00,
2013-11-16 01:00:00,49.5,44.6,29.91,WSW,249,0.0,6.0,83,0.00,,,0.00,0.0,meteohub,2013-11-16 09:00:00,
2013-11-16 01:05:00,49.3,44.6,29.91,SSE,167,0.0,6.0,84,0.00,,,0.00,0.0,meteohub,2013-11-16 09:05:00,
2013-11-16 01:10:00,49.3,44.6,29.91,WNW,302,0.0,4.0,84,0.00,,,0.00,0.0,meteohub,2013-11-16 09:10:00,
2013-11-16 01:15:00,49.3,44.6,29.90,SSW,194,0.0,6.0,84,0.00,,,0.00,0.0,meteohub,2013-11-16 09:15:00,
2013-11-16 01:20:00,49.1,44.4,29.90,West,271,1.0,6.0,84,0.00,,,0.00,0.0,meteohub,2013-11-16 09:20:00,
2013-11-16 01:25:00,49.1,44.4,29.90,WSW,254,1.0,6.0,84,0.00,,,0.00,0.0,meteohub,2013-11-16 09:25:00,
2013-11-16 01:30:00,48.9,44.6,29.90,West,277,1.0,4.0,85,0.00,,,0.00,0.0,meteohub,2013-11-16 09:30:00,
2013-11-16 01:35:00,48.7,44.4,29.90,WSW,250,8.0,8.0,85,0.00,,,0.00,0.0,meteohub,2013-11-16 09:35:00,
2013-11-16 01:40:00,48.7,44.8,29.91,SW,232,1.0,8.0,86,0.00,,,0.00,0.0,meteohub,2013-11-16 09:40:00,
2013-11-16 01:45:00,48.7,44.8,29.91,West,271,1.0,8.0,86,0.00,,,0.00,0.0,meteohub,2013-11-16 09:45:00,
2013-11-16 01:50:00,48.7,44.8,29.91,West,280,0.0,8.0,86,0.00,,,0.00,0.0,meteohub,2013-11-16 09:50:00,
2013-11-16 01:55:00,48.6,44.6,29.91,West,264,3.0,6.0,86,0.00,,,0.00,0.0,meteohub,2013-11-16 09:55:00,
2013-11-16 02:00:00,48.6,44.8,29.91,South,189,0.0,6.0,87,0.00,,,0.00,0.0,meteohub,2013-11-16 10:00:00,
2013-11-16 02:05:00,48.6,44.8,29.91,SW,217,0.0,5.0,87,0.00,,,0.00,0.0,meteohub,2013-11-16 10:05:00,
2013-11-16 02:10:00,48.6,44.8,29.91,SW,217,2.0,5.0,87,0.00,,,0.00,0.0,meteohub,2013-11-16 10:10:00,
2013-11-16 02:15:00,48.4,44.8,29.91,WSW,241,0.0,5.0,87,0.00,,,0.00,0.0,meteohub,2013-11-16 10:15:00,
2013-11-16 02:21:00,48.4,44.8,29.91,West,266,1.0,5.0,87,0.00,,,0.00,0.0,meteohub,2013-11-16 10:21:00,
2013-11-16 02:26:00,48.4,44.8,29.91,West,260,2.0,8.0,87,0.00,,,0.00,0.0,meteohub,2013-11-16 10:26:00,
2013-11-16 02:31:00,48.4,44.8,29.91,SE,142,1.0,8.0,87,0.00,,,0.00,0.0,meteohub,2013-11-16 10:31:00,
2013-11-16 02:36:00,48.4,45.0,29.91,SW,236,0.0,8.0,88,0.00,,,0.00,0.0,meteohub,2013-11-16 10:36:00,
2013-11-16 02:41:00,48.4,44.8,29.90,WSW,247,2.0,8.0,87,0.00,,,0.00,0.0,meteohub,2013-11-16 10:41:00,
2013-11-16 02:46:00,48.4,44.8,29.91,WSW,245,0.0,8.0,87,0.00,,,0.00,0.0,meteohub,2013-11-16 10:46:00,
2013-11-16 02:51:00,48.4,44.8,29.91,WSW,246,0.0,7.0,87,0.00,,,0.00,0.0,meteohub,2013-11-16 10:51:00,
2013-11-16 02:56:00,48.2,44.6,29.91,West,271,1.0,7.0,87,0.00,,,0.00,0.0,meteohub,2013-11-16 10:56:00,
2013-11-16 03:01:00,48.0,44.4,29.91,SW,232,2.0,7.0,87,0.00,,,0.00,0.0,meteohub,2013-11-16 11:01:00,
2013-11-16 03:06:00,48.2,44.6,29.91,WSW,238,8.0,8.0,87,0.00,,,0.00,0.0,meteohub,2013-11-16 11:06:00,
2013-11-16 03:11:00,48.2,44.8,29.91,WSW,250,0.0,8.0,88,0.00,,,0.00,0.0,meteohub,2013-11-16 11:11:00,
2013-11-16 03:16:00,48.4,45.0,29.91,WSW,255,5.0,8.0,88,0.00,,,0.00,0.0,meteohub,2013-11-16 11:16:00,
2013-11-16 03:21:00,48.4,44.8,29.91,West,272,1.0,8.0,87,0.00,,,0.00,0.0,meteohub,2013-11-16 11:21:00,
2013-11-16 03:26:00,48.4,44.8,29.91,WSW,258,0.0,8.0,87,0.00,,,0.00,0.0,meteohub,2013-11-16 11:26:00,
2013-11-16 03:31:00,48.4,44.8,29.91,WNW,288,1.0,8.0,87,0.00,,,0.00,0.0,meteohub,2013-11-16 11:31:00,
2013-11-16 03:36:00,48.6,44.8,29.91,West,261,0.0,12.0,87,0.00,,,0.00,0.0,meteohub,2013-11-16 11:36:00,
2013-11-16 03:41:00,48.6,44.8,29.91,West,277,0.0,12.0,87,0.00,,,0.00,0.0,meteohub,2013-11-16 11:41:00,
2013-11-16 03:46:00,48.6,44.8,29.91,WSW,245,1.0,12.0,87,0.00,,,0.00,0.0,meteohub,2013-11-16 11:46:00,
2013-11-16 03:51:00,48.6,44.6,29.91,SSW,209,7.0,9.0,86,0.00,,,0.00,0.0,meteohub,2013-11-16 11:51:00,
2013-11-16 03:56:00,48.4,44.4,29.91,SSW,209,0.0,9.0,86,0.00,,,0.00,0.0,meteohub,2013-11-16 11:56:00,
2013-11-16 04:01:00,48.4,44.4,29.91,West,265,0.0,7.0,86,0.00,,,0.00,0.0,meteohub,2013-11-16 12:01:00,
2013-11-16 04:06:00,48.2,44.2,29.91,West,265,0.0,7.0,86,0.00,,,0.00,0.0,meteohub,2013-11-16 12:06:00,
2013-11-16 04:12:00,48.2,44.2,29.91,SW,224,1.0,3.0,86,0.00,,,0.00,0.0,meteohub,2013-11-16 12:12:00,
2013-11-16 04:17:00,48.0,44.1,29.91,SW,223,1.0,6.0,86,0.00,,,0.00,0.0,meteohub,2013-11-16 12:17:00,
2013-11-16 04:22:00,47.8,43.9,29.91,WSW,254,1.0,6.0,86,0.00,,,0.00,0.0,meteohub,2013-11-16 12:22:00,
2013-11-16 04:27:00,47.8,43.9,29.91,SW,234,2.0,3.0,86,0.00,,,0.00,0.0,meteohub,2013-11-16 12:27:00,
2013-11-16 04:32:00,47.7,44.1,29.91,SW,229,3.0,4.0,87,0.00,,,0.00,0.0,meteohub,2013-11-16 12:32:00,
2013-11-16 04:37:00,47.7,44.1,29.91,SSW,213,1.0,4.0,87,0.00,,,0.00,0.0,meteohub,2013-11-16 12:37:00,
2013-11-16 04:42:00,47.7,44.1,29.91,SW,221,2.0,6.0,87,0.00,,,0.00,0.0,meteohub,2013-11-16 12:42:00,
2013-11-16 04:47:00,47.7,44.1,29.91,WSW,255,3.0,6.0,87,0.00,,,0.00,0.0,meteohub,2013-11-16 12:47:00,
2013-11-16 04:52:00,47.7,44.1,29.92,WSW,242,1.0,6.0,87,0.00,,,0.00,0.0,meteohub,2013-11-16 12:52:00,
2013-11-16 04:57:00,47.7,44.1,29.93,SW,222,2.0,5.0,87,0.00,,,0.00,0.0,meteohub,2013-11-16 12:57:00,
2013-11-16 05:02:00,47.8,44.2,29.92,WSW,240,4.0,5.0,87,0.00,,,0.00,0.0,meteohub,2013-11-16 13:02:00,
2013-11-16 05:07:00,47.8,44.2,29.92,WSW,251,2.0,6.0,87,0.00,,,0.00,0.0,meteohub,2013-11-16 13:07:00,
2013-11-16 05:12:00,47.8,44.2,29.93,SW,235,0.0,7.0,87,0.00,,,0.00,0.0,meteohub,2013-11-16 13:12:00,
2013-11-16 05:17:00,47.8,43.9,29.93,SW,236,1.0,7.0,86,0.00,,,0.00,0.0,meteohub,2013-11-16 13:17:00,
2013-11-16 05:22:00,47.8,43.9,29.92,West,272,0.0,5.0,86,0.00,,,0.00,0.0,meteohub,2013-11-16 13:22:00,
2013-11-16 05:27:00,47.7,43.7,29.92,SW,234,0.0,5.0,86,0.00,,,0.00,0.0,meteohub,2013-11-16 13:27:00,
2013-11-16 05:32:00,47.7,43.7,29.92,West,261,0.0,5.0,86,0.00,,,0.00,0.0,meteohub,2013-11-16 13:32:00,
2013-11-16 05:37:00,47.7,43.7,29.92,West,261,0.0,5.0,86,0.00,,,0.00,0.0,meteohub,2013-11-16 13:37:00,
2013-11-16 05:42:00,47.7,43.7,29.92,West,261,0.0,5.0,86,0.00,,,0.00,0.0,meteohub,2013-11-16 13:42:00,
2013-11-16 05:47:00,47.5,43.5,29.92,West,261,0.0,3.0,86,0.00,,,0.00,0.0,meteohub,2013-11-16 13:47:00,
2013-11-16 05:52:00,47.5,43.5,29.92,West,261,0.0,2.0,86,0.00,,,0.00,0.0,meteohub,2013-11-16 13:52:00,
2013-11-16 05:57:00,47.3,43.3,29.92,WSW,243,0.0,2.0,86,0.00,,,0.00,0.0,meteohub,2013-11-16 13:57:00,
2013-11-16 06:02:00,47.1,43.2,29.93,WSW,243,0.0,2.0,86,0.00,,,0.00,0.0,meteohub,2013-11-16 14:02:00,
2013-11-16 06:07:00,47.1,43.2,29.93,SSW,200,0.0,1.0,86,0.00,,,0.00,0.0,meteohub,2013-11-16 14:07:00,
2013-11-16 06:12:00,46.9,43.0,29.93,West,278,1.0,2.0,86,0.00,,,0.00,0.0,meteohub,2013-11-16 14:12:00,
2013-11-16 06:17:00,46.9,43.0,29.93,SW,228,0.0,3.0,86,0.00,,,0.00,0.0,meteohub,2013-11-16 14:17:00,
2013-11-16 06:22:00,46.9,43.0,29.93,SW,219,0.0,3.0,86,0.00,,,0.00,0.0,meteohub,2013-11-16 14:22:00,
2013-11-16 06:27:00,46.9,43.0,29.93,SW,219,0.0,3.0,86,0.00,,,0.00,0.0,meteohub,2013-11-16 14:27:00,
2013-11-16 06:32:00,46.8,42.8,29.93,SW,219,1.0,1.0,86,0.00,,,0.00,0.0,meteohub,2013-11-16 14:32:00,
2013-11-16 06:37:00,46.8,42.8,29.93,WSW,255,1.0,2.0,86,0.00,,,0.00,0.0,meteohub,2013-11-16 14:37:00,
2013-11-16 06:42:00,46.8,43.2,29.94,SW,232,0.0,4.0,87,0.00,,,0.00,0.0,meteohub,2013-11-16 14:42:00,
2013-11-16 06:47:00,46.8,43.2,29.94,SSW,196,0.0,4.0,87,0.00,,,0.00,0.0,meteohub,2013-11-16 14:47:00,
2013-11-16 06:52:00,46.6,43.0,29.95,SSW,196,0.0,4.0,87,0.00,,,0.00,0.0,meteohub,2013-11-16 14:52:00,
2013-11-16 06:57:00,46.6,43.0,29.95,SSW,199,0.0,1.0,87,0.00,,,0.00,0.0,meteohub,2013-11-16 14:57:00,
2013-11-16 07:02:00,46.6,43.0,29.96,SW,227,0.0,1.0,87,0.00,,,0.00,0.0,meteohub,2013-11-16 15:02:00,
2013-11-16 07:07:00,46.6,43.0,29.95,SW,223,0.0,1.0,87,0.00,,,0.00,5.0,meteohub,2013-11-16 15:07:00,
2013-11-16 07:12:00,46.6,43.0,29.95,South,186,0.0,1.0,87,0.00,,,0.00,9.0,meteohub,2013-11-16 15:12:00,
2013-11-16 07:17:00,46.6,43.2,29.96,WSW,241,0.0,1.0,88,0.00,,,0.00,9.0,meteohub,2013-11-16 15:17:00,
2013-11-16 07:22:00,46.8,43.3,29.96,SSE,159,1.0,6.0,88,0.00,,,0.00,11.0,meteohub,2013-11-16 15:22:00,
2013-11-16 07:27:00,46.8,43.3,29.96,SW,224,0.0,6.0,88,0.00,,,0.00,11.0,meteohub,2013-11-16 15:27:00,
2013-11-16 07:32:00,46.8,43.3,29.96,WNW,291,0.0,6.0,88,0.00,,,0.00,12.0,meteohub,2013-11-16 15:32:00,
2013-11-16 07:37:00,46.8,43.3,29.96,WNW,291,0.0,3.0,88,0.00,,,0.00,12.0,meteohub,2013-11-16 15:37:00,
2013-11-16 07:42:00,46.9,43.5,29.96,WSW,257,2.0,3.0,88,0.00,,,0.00,14.0,meteohub,2013-11-16 15:42:00,
2013-11-16 07:47:00,47.1,43.7,29.96,SSE,166,0.0,9.0,88,0.00,,,0.00,14.0,meteohub,2013-11-16 15:47:00,
2013-11-16 07:52:00,47.1,43.7,29.96,SSW,194,3.0,9.0,88,0.00,,,0.00,14.0,meteohub,2013-11-16 15:52:00,
2013-11-16 07:57:00,47.3,43.7,29.96,West,279,2.0,9.0,87,0.00,,,0.00,14.0,meteohub,2013-11-16 15:57:00,
2013-11-16 08:02:00,47.5,43.5,29.96,WSW,250,2.0,9.0,86,0.00,,,0.00,16.0,meteohub,2013-11-16 16:02:00,
2013-11-16 08:07:00,47.7,43.3,29.96,SW,219,0.0,5.0,85,0.00,,,0.00,16.0,meteohub,2013-11-16 16:07:00,
2013-11-16 08:12:00,47.7,43.0,29.96,WSW,248,1.0,5.0,84,0.00,,,0.00,16.0,meteohub,2013-11-16 16:12:00,
2013-11-16 08:17:00,47.8,43.2,29.97,SW,217,1.0,4.0,84,0.00,,,0.00,18.0,meteohub,2013-11-16 16:17:00,
2013-11-16 08:22:00,48.0,43.2,29.97,SSW,213,1.0,4.0,83,0.00,,,0.00,18.0,meteohub,2013-11-16 16:22:00,
2013-11-16 08:27:00,48.2,43.3,29.98,WNW,288,1.0,4.0,83,0.00,,,0.00,19.0,meteohub,2013-11-16 16:27:00,
2013-11-16 08:32:00,48.6,43.7,29.97,WSW,254,3.0,6.0,83,0.00,,,0.00,19.0,meteohub,2013-11-16 16:32:00,
2013-11-16 08:37:00,48.7,44.1,29.98,West,262,3.0,6.0,84,0.00,,,0.00,19.0,meteohub,2013-11-16 16:37:00,
2013-11-16 08:42:00,48.7,44.1,29.98,WNW,290,2.0,7.0,84,0.00,,,0.00,21.0,meteohub,2013-11-16 16:42:00,
2013-11-16 08:47:00,48.7,44.1,29.98,West,275,4.0,7.0,84,0.00,,,0.00,21.0,meteohub,2013-11-16 16:47:00,
2013-11-16 08:52:00,48.7,43.9,29.98,WSW,254,0.0,7.0,83,0.00,,,0.00,21.0,meteohub,2013-11-16 16:52:00,
2013-11-16 08:57:00,48.9,44.1,29.98,WSW,238,0.0,9.0,83,0.00,,,0.00,21.0,meteohub,2013-11-16 16:57:00,
2013-11-16 09:02:00,48.9,44.1,29.98,WSW,238,1.0,9.0,83,0.00,,,0.00,23.0,meteohub,2013-11-16 17:02:00,
2013-11-16 09:07:00,49.3,44.1,29.99,WNW,293,0.0,6.0,82,0.00,,,0.00,25.0,meteohub,2013-11-16 17:07:00,
2013-11-16 09:12:00,49.5,43.9,29.99,WNW,284,4.0,6.0,81,0.00,,,0.00,26.0,meteohub,2013-11-16 17:12:00,
2013-11-16 09:17:00,49.8,44.2,29.99,West,265,3.0,6.0,81,0.00,,,0.00,28.0,meteohub,2013-11-16 17:17:00,
2013-11-16 09:22:00,50.0,44.1,29.99,SW,236,1.0,7.0,80,0.00,,,0.00,30.0,meteohub,2013-11-16 17:22:00,
2013-11-16 09:27:00,50.2,43.9,29.98,WSW,248,2.0,7.0,79,0.00,,,0.00,56.0,meteohub,2013-11-16 17:27:00,
2013-11-16 09:32:00,50.4,43.7,29.99,SW,225,2.0,7.0,78,0.00,,,0.00,336.0,meteohub,2013-11-16 17:32:00,
2013-11-16 09:37:00,50.7,43.5,29.99,WSW,244,1.0,7.0,76,0.00,,,0.00,346.0,meteohub,2013-11-16 17:37:00,
2013-11-16 09:42:00,51.3,43.5,29.99,West,278,1.0,7.0,75,0.00,,,0.00,355.0,meteohub,2013-11-16 17:42:00,
2013-11-16 09:47:00,51.6,43.5,29.99,West,259,2.0,7.0,74,0.00,,,0.00,367.0,meteohub,2013-11-16 17:47:00,
2013-11-16 09:52:00,52.0,43.9,29.99,WSW,250,1.0,6.0,74,0.00,,,0.00,380.0,meteohub,2013-11-16 17:52:00,
2013-11-16 09:57:00,52.3,44.2,29.99,WSW,257,4.0,8.0,74,0.00,,,0.00,387.0,meteohub,2013-11-16 17:57:00,
2013-11-16 10:02:00,52.5,44.1,29.99,West,271,5.0,8.0,73,0.00,,,0.00,399.0,meteohub,2013-11-16 18:02:00,
2013-11-16 10:07:00,52.9,43.7,29.99,WSW,255,1.0,8.0,71,0.00,,,0.00,410.0,meteohub,2013-11-16 18:07:00,
2013-11-16 10:12:00,53.2,43.0,29.99,WSW,241,6.0,7.0,68,0.00,,,0.00,417.0,meteohub,2013-11-16 18:12:00,
2013-11-16 10:17:00,53.4,42.8,29.99,WSW,237,0.0,7.0,67,0.00,,,0.00,422.0,meteohub,2013-11-16 18:17:00,
2013-11-16 10:22:00,54.0,42.8,29.99,WSW,245,6.0,7.0,66,0.00,,,0.00,436.0,meteohub,2013-11-16 18:22:00,
2013-11-16 10:27:00,54.1,42.6,29.99,SSW,210,3.0,7.0,65,0.00,,,0.00,443.0,meteohub,2013-11-16 18:27:00,
2013-11-16 10:32:00,54.7,42.8,29.99,SSW,199,5.0,7.0,64,0.00,,,0.00,452.0,meteohub,2013-11-16 18:32:00,
2013-11-16 10:37:00,55.0,42.6,30.00,WSW,243,3.0,11.0,63,0.00,,,0.00,457.0,meteohub,2013-11-16 18:37:00,
2013-11-16 10:42:00,55.2,42.4,30.00,WSW,254,1.0,11.0,62,0.00,,,0.00,468.0,meteohub,2013-11-16 18:42:00,
2013-11-16 10:47:00,55.8,42.4,29.99,WSW,242,0.0,11.0,61,0.00,,,0.00,473.0,meteohub,2013-11-16 18:47:00,
2013-11-16 10:52:00,56.1,42.4,29.99,SW,223,1.0,8.0,60,0.00,,,0.00,478.0,meteohub,2013-11-16 18:52:00,
2013-11-16 10:57:00,56.7,42.1,29.99,SSW,208,0.0,8.0,58,0.00,,,0.00,485.0,meteohub,2013-11-16 18:57:00,
2013-11-16 11:02:00,56.8,40.8,29.99,SW,217,4.0,9.0,55,0.00,,,0.00,492.0,meteohub,2013-11-16 19:02:00,
2013-11-16 11:07:00,57.2,41.7,29.99,West,277,3.0,9.0,56,0.00,,,0.00,494.0,meteohub,2013-11-16 19:07:00,
2013-11-16 11:12:00,57.4,42.8,29.99,WNW,291,1.0,10.0,58,0.00,,,0.00,501.0,meteohub,2013-11-16 19:12:00,
2013-11-16 11:17:00,57.7,43.0,29.98,WSW,243,1.0,10.0,58,0.00,,,0.00,504.0,meteohub,2013-11-16 19:17:00,
2013-11-16 11:22:00,58.3,42.3,29.98,SW,228,1.0,10.0,55,0.00,,,0.00,510.0,meteohub,2013-11-16 19:22:00,
2013-11-16 11:27:00,58.5,42.4,29.98,SW,219,2.0,6.0,55,0.00,,,0.00,512.0,meteohub,2013-11-16 19:27:00,
2013-11-16 11:32:00,58.6,42.4,29.98,West,274,0.0,8.0,55,0.00,,,0.00,515.0,meteohub,2013-11-16 19:32:00,
2013-11-16 11:37:00,59.0,42.4,29.98,WSW,248,1.0,8.0,54,0.00,,,0.00,517.0,meteohub,2013-11-16 19:37:00,
2013-11-16 11:42:00,59.7,43.0,29.97,NW,304,2.0,8.0,54,0.00,,,0.00,443.0,meteohub,2013-11-16 19:42:00,
2013-11-16 11:47:00,60.1,43.0,29.97,SW,233,8.0,8.0,53,0.00,,,0.00,202.0,meteohub,2013-11-16 19:47:00,
2013-11-16 11:52:00,59.9,42.8,29.97,SW,221,0.0,9.0,53,0.00,,,0.00,529.0,meteohub,2013-11-16 19:52:00,
2013-11-16 11:57:00,59.9,42.8,29.97,WSW,242,2.0,9.0,53,0.00,,,0.00,527.0,meteohub,2013-11-16 19:57:00,
2013-11-16 12:02:00,60.3,42.6,29.96,SW,234,0.0,9.0,52,0.00,,,0.00,527.0,meteohub,2013-11-16 20:02:00,
2013-11-16 12:07:00,60.6,42.4,29.96,SW,215,5.0,7.0,51,0.00,,,0.00,531.0,meteohub,2013-11-16 20:07:00,
2013-11-16 12:12:00,61.0,42.8,29.96,WSW,252,3.0,9.0,51,0.00,,,0.00,517.0,meteohub,2013-11-16 20:12:00,
2013-11-16 12:17:00,61.2,42.4,29.96,WSW,247,0.0,9.0,50,0.00,,,0.00,506.0,meteohub,2013-11-16 20:17:00,
2013-11-16 12:22:00,61.3,42.6,29.96,West,259,5.0,9.0,50,0.00,,,0.00,524.0,meteohub,2013-11-16 20:22:00,
2013-11-16 12:27:00,61.5,42.6,29.96,SW,228,0.0,6.0,50,0.00,,,0.00,499.0,meteohub,2013-11-16 20:27:00,
2013-11-16 12:32:00,61.9,42.4,29.96,WSW,246,1.0,7.0,49,0.00,,,0.00,513.0,meteohub,2013-11-16 20:32:00,
2013-11-16 12:37:00,62.2,42.3,29.96,WSW,244,2.0,7.0,48,0.00,,,0.00,512.0,meteohub,2013-11-16 20:37:00,
2013-11-16 12:42:00,62.4,43.0,29.96,South,185,1.0,7.0,49,0.00,,,0.00,517.0,meteohub,2013-11-16 20:42:00,
2013-11-16 12:47:00,63.0,43.0,29.96,SW,234,2.0,7.0,48,0.00,,,0.00,512.0,meteohub,2013-11-16 20:47:00,
2013-11-16 12:52:00,63.1,42.6,29.96,West,270,3.0,6.0,47,0.00,,,0.00,345.0,meteohub,2013-11-16 20:52:00,
2013-11-16 12:57:00,63.3,41.5,29.96,SW,232,3.0,8.0,45,0.00,,,0.00,508.0,meteohub,2013-11-16 20:57:00,
2013-11-16 13:02:00,63.1,40.8,29.96,SW,234,4.0,8.0,44,0.00,,,0.00,494.0,meteohub,2013-11-16 21:02:00,
2013-11-16 13:07:00,63.3,41.5,29.96,SW,227,3.0,9.0,45,0.00,,,0.00,503.0,meteohub,2013-11-16 21:07:00,
2013-11-16 13:12:00,63.5,37.4,29.96,SW,221,2.0,9.0,38,0.00,,,0.00,489.0,meteohub,2013-11-16 21:12:00,
2013-11-16 13:17:00,63.7,37.6,29.96,WSW,256,3.0,9.0,38,0.00,,,0.00,494.0,meteohub,2013-11-16 21:17:00,
2013-11-16 13:22:00,63.9,38.5,29.96,WSW,239,2.0,10.0,39,0.00,,,0.00,457.0,meteohub,2013-11-16 21:22:00,
2013-11-16 13:27:00,63.9,38.5,29.95,SSW,209,5.0,10.0,39,0.00,,,0.00,469.0,meteohub,2013-11-16 21:27:00,
2013-11-16 13:32:00,63.9,38.5,29.95,WSW,250,9.0,9.0,39,0.00,,,0.00,476.0,meteohub,2013-11-16 21:32:00,
2013-11-16 13:37:00,63.7,39.6,29.96,WSW,246,8.0,10.0,41,0.00,,,0.00,466.0,meteohub,2013-11-16 21:37:00,
2013-11-16 13:42:00,63.7,39.6,29.96,SW,224,5.0,10.0,41,0.00,,,0.00,462.0,meteohub,2013-11-16 21:42:00,
2013-11-16 13:47:00,63.9,39.0,29.96,WSW,257,5.0,10.0,40,0.00,,,0.00,265.0,meteohub,2013-11-16 21:47:00,
2013-11-16 13:53:00,64.2,41.2,29.96,NW,319,2.0,10.0,43,0.00,,,0.00,308.0,meteohub,2013-11-16 21:53:00,
2013-11-16 13:58:00,64.6,41.5,29.96,WSW,245,6.0,11.0,43,0.00,,,0.00,223.0,meteohub,2013-11-16 21:58:00,
2013-11-16 14:03:00,64.6,42.3,29.96,WSW,257,7.0,11.0,44,0.00,,,0.00,420.0,meteohub,2013-11-16 22:03:00,
2013-11-16 14:08:00,64.0,42.8,29.96,West,261,7.0,11.0,46,0.00,,,0.00,411.0,meteohub,2013-11-16 22:08:00,
2013-11-16 14:13:00,63.9,43.2,29.96,SW,225,4.0,9.0,47,0.00,,,0.00,406.0,meteohub,2013-11-16 22:13:00,
2013-11-16 14:18:00,63.9,43.2,29.96,West,260,3.0,8.0,47,0.00,,,0.00,394.0,meteohub,2013-11-16 22:18:00,
2013-11-16 14:23:00,63.9,43.7,29.96,West,259,5.0,9.0,48,0.00,,,0.00,385.0,meteohub,2013-11-16 22:23:00,
2013-11-16 14:28:00,63.7,43.7,29.96,West,267,4.0,9.0,48,0.00,,,0.00,378.0,meteohub,2013-11-16 22:28:00,
2013-11-16 14:34:00,63.7,44.2,29.96,WSW,243,5.0,9.0,49,0.00,,,0.00,374.0,meteohub,2013-11-16 22:34:00,
2013-11-16 14:39:00,63.5,43.5,29.96,WSW,242,3.0,12.0,48,0.00,,,0.00,362.0,meteohub,2013-11-16 22:39:00,
2013-11-16 14:44:00,63.7,43.7,29.96,WSW,254,6.0,12.0,48,0.00,,,0.00,352.0,meteohub,2013-11-16 22:44:00,
2013-11-16 14:49:00,63.9,43.7,29.96,SW,231,5.0,9.0,48,0.00,,,0.00,338.0,meteohub,2013-11-16 22:49:00,
2013-11-16 14:54:00,63.9,43.7,29.96,West,273,5.0,9.0,48,0.00,,,0.00,322.0,meteohub,2013-11-16 22:54:00,
2013-11-16 14:59:00,63.5,44.6,29.96,WSW,250,4.0,8.0,50,0.00,,,0.00,304.0,meteohub,2013-11-16 22:59:00,
2013-11-16 15:04:00,63.3,45.0,29.96,WSW,254,4.0,10.0,51,0.00,,,0.00,292.0,meteohub,2013-11-16 23:04:00,
2013-11-16 15:09:00,63.1,44.8,29.96,WSW,256,5.0,11.0,51,0.00,,,0.00,276.0,meteohub,2013-11-16 23:09:00,
2013-11-16 15:14:00,63.3,45.3,29.96,WNW,282,3.0,11.0,52,0.00,,,0.00,264.0,meteohub,2013-11-16 23:14:00,
2013-11-16 15:20:00,63.3,45.0,29.96,WSW,242,6.0,11.0,51,0.00,,,0.00,248.0,meteohub,2013-11-16 23:20:00,
2013-11-16 15:25:00,63.3,45.3,29.96,West,259,4.0,11.0,52,0.00,,,0.00,234.0,meteohub,2013-11-16 23:25:00,
2013-11-16 15:30:00,62.8,45.3,29.97,West,271,4.0,11.0,53,0.00,,,0.00,216.0,meteohub,2013-11-16 23:30:00,
2013-11-16 15:35:00,62.4,45.5,29.96,WSW,257,5.0,11.0,54,0.00,,,0.00,200.0,meteohub,2013-11-16 23:35:00,
2013-11-16 15:40:00,62.4,46.0,29.96,WSW,246,4.0,12.0,55,0.00,,,0.00,185.0,meteohub,2013-11-16 23:40:00,
2013-11-16 15:45:00,62.4,46.0,29.97,West,274,1.0,7.0,55,0.00,,,0.00,167.0,meteohub,2013-11-16 23:45:00,
2013-11-16 15:50:00,62.1,46.2,29.97,WSW,257,3.0,7.0,56,0.00,,,0.00,151.0,meteohub,2013-11-16 23:50:00,
2013-11-16 15:55:00,61.5,46.2,29.97,West,259,3.0,8.0,57,0.00,,,0.00,135.0,meteohub,2013-11-16 23:55:00,
2013-11-16 16:00:00,61.2,46.2,29.97,WSW,245,4.0,8.0,58,0.00,,,0.00,118.0,meteohub,2013-11-17 00:00:00,
2013-11-16 16:05:00,60.6,46.2,29.97,West,263,3.0,8.0,59,0.00,,,0.00,102.0,meteohub,2013-11-17 00:05:00,
2013-11-16 16:10:00,60.3,46.4,29.97,WNW,285,5.0,6.0,60,0.00,,,0.00,90.0,meteohub,2013-11-17 00:10:00,
2013-11-16 16:15:00,59.9,46.4,29.97,SW,230,3.0,8.0,61,0.00,,,0.00,76.0,meteohub,2013-11-17 00:15:00,
2013-11-16 16:20:00,59.5,46.0,29.97,West,259,5.0,8.0,61,0.00,,,0.00,62.0,meteohub,2013-11-17 00:20:00,
2013-11-16 16:25:00,59.4,46.4,29.97,WSW,252,5.0,7.0,62,0.00,,,0.00,47.0,meteohub,2013-11-17 00:25:00,
2013-11-16 16:31:00,59.2,46.6,29.97,SW,233,6.0,7.0,63,0.00,,,0.00,35.0,meteohub,2013-11-17 00:31:00,
2013-11-16 16:36:00,59.0,46.8,29.97,WSW,242,3.0,8.0,64,0.00,,,0.00,26.0,meteohub,2013-11-17 00:36:00,
2013-11-16 16:41:00,58.6,46.9,29.97,WSW,249,4.0,8.0,65,0.00,,,0.00,18.0,meteohub,2013-11-17 00:41:00,
2013-11-16 16:46:00,58.3,46.9,29.98,WSW,249,1.0,8.0,66,0.00,,,0.00,7.0,meteohub,2013-11-17 00:46:00,
2013-11-16 16:51:00,57.7,46.9,29.98,WSW,237,0.0,6.0,67,0.00,,,0.00,5.0,meteohub,2013-11-17 00:51:00,
2013-11-16 16:56:00,57.6,47.1,29.98,West,275,0.0,6.0,68,0.00,,,0.00,0.0,meteohub,2013-11-17 00:56:00,
2013-11-16 17:01:00,57.0,46.9,29.98,SW,219,1.0,6.0,69,0.00,,,0.00,0.0,meteohub,2013-11-17 01:01:00,
2013-11-16 17:06:00,56.7,46.9,29.98,WSW,246,3.0,6.0,70,0.00,,,0.00,0.0,meteohub,2013-11-17 01:06:00,
2013-11-16 17:11:00,56.5,47.1,29.98,WSW,249,1.0,5.0,71,0.00,,,0.00,0.0,meteohub,2013-11-17 01:11:00,
2013-11-16 17:16:00,56.1,46.8,29.98,SW,234,2.0,4.0,71,0.00,,,0.00,0.0,meteohub,2013-11-17 01:16:00,
2013-11-16 17:21:00,55.9,47.1,29.99,SW,236,1.0,6.0,72,0.00,,,0.00,0.0,meteohub,2013-11-17 01:21:00,
2013-11-16 17:26:00,55.6,47.1,29.99,WSW,253,1.0,6.0,73,0.00,,,0.00,0.0,meteohub,2013-11-17 01:26:00,
2013-11-16 17:31:00,55.4,47.3,29.99,SE,132,0.0,6.0,74,0.00,,,0.00,0.0,meteohub,2013-11-17 01:31:00,
2013-11-16 17:36:00,55.2,47.8,29.99,WSW,238,0.0,5.0,76,0.00,,,0.00,0.0,meteohub,2013-11-17 01:36:00,
2013-11-16 17:41:00,55.0,47.7,29.99,SW,236,0.0,6.0,76,0.00,,,0.00,0.0,meteohub,2013-11-17 01:41:00,
2013-11-16 17:46:00,54.9,47.5,29.99,WSW,238,0.0,6.0,76,0.00,,,0.00,0.0,meteohub,2013-11-17 01:46:00,
2013-11-16 17:52:00,54.7,47.7,30.00,SSW,204,0.0,6.0,77,0.00,,,0.00,0.0,meteohub,2013-11-17 01:52:00,
2013-11-16 17:57:00,54.7,47.7,30.00,SW,226,0.0,3.0,77,0.00,,,0.00,0.0,meteohub,2013-11-17 01:57:00,
2013-11-16 18:02:00,54.5,47.8,30.00,SW,235,0.0,3.0,78,0.00,,,0.00,0.0,meteohub,2013-11-17 02:02:00,
2013-11-16 18:07:00,54.3,47.7,30.00,SW,235,1.0,3.0,78,0.00,,,0.00,0.0,meteohub,2013-11-17 02:07:00,
2013-11-16 18:12:00,54.3,48.0,30.00,West,260,0.0,5.0,79,0.00,,,0.00,0.0,meteohub,2013-11-17 02:12:00,
2013-11-16 18:17:00,54.1,47.8,30.00,WSW,246,2.0,6.0,79,0.00,,,0.00,0.0,meteohub,2013-11-17 02:17:00,
2013-11-16 18:22:00,54.1,47.8,30.00,WSW,239,0.0,6.0,79,0.00,,,0.00,0.0,meteohub,2013-11-17 02:22:00,
2013-11-16 18:27:00,54.1,47.8,30.01,WSW,239,0.0,6.0,79,0.00,,,0.00,0.0,meteohub,2013-11-17 02:27:00,
2013-11-16 18:32:00,54.1,47.8,30.01,WSW,239,0.0,6.0,79,0.00,,,0.00,0.0,meteohub,2013-11-17 02:32:00,
2013-11-16 18:37:00,54.0,47.3,30.01,WSW,239,0.0,2.0,78,0.00,,,0.00,0.0,meteohub,2013-11-17 02:37:00,
2013-11-16 18:42:00,54.0,47.7,30.01,WSW,239,0.0,1.0,79,0.00,,,0.00,0.0,meteohub,2013-11-17 02:42:00,
2013-11-16 18:47:00,53.8,47.5,30.01,WSW,239,1.0,1.0,79,0.00,,,0.00,0.0,meteohub,2013-11-17 02:47:00,
2013-11-16 18:52:00,53.6,47.3,30.01,WSW,239,0.0,2.0,79,0.00,,,0.00,0.0,meteohub,2013-11-17 02:52:00,
2013-11-16 18:57:00,53.4,47.1,30.01,WSW,239,0.0,2.0,79,0.00,,,0.00,0.0,meteohub,2013-11-17 02:57:00,
2013-11-16 19:02:00,53.4,47.1,30.01,WSW,239,0.0,2.0,79,0.00,,,0.00,0.0,meteohub,2013-11-17 03:02:00,
2013-11-16 19:07:00,53.2,46.9,30.01,WSW,238,0.0,1.0,79,0.00,,,0.00,0.0,meteohub,2013-11-17 03:07:00,
2013-11-16 19:12:00,53.2,46.9,30.01,SSW,205,0.0,2.0,79,0.00,,,0.00,0.0,meteohub,2013-11-17 03:12:00,
2013-11-16 19:17:00,53.2,46.6,30.02,SSW,205,0.0,3.0,78,0.00,,,0.00,0.0,meteohub,2013-11-17 03:17:00,
2013-11-16 19:22:00,53.2,46.9,30.02,SSW,205,0.0,3.0,79,0.00,,,0.00,0.0,meteohub,2013-11-17 03:22:00,
2013-11-16 19:27:00,53.2,46.9,30.02,SSW,204,0.0,2.0,79,0.00,,,0.00,0.0,meteohub,2013-11-17 03:27:00,
2013-11-16 19:32:00,53.1,46.4,30.02,SSW,204,0.0,1.0,78,0.00,,,0.00,0.0,meteohub,2013-11-17 03:32:00,
2013-11-16 19:37:00,52.9,46.6,30.02,SSW,204,0.0,1.0,79,0.00,,,0.00,0.0,meteohub,2013-11-17 03:37:00,
2013-11-16 19:42:00,52.9,46.6,30.03,SSW,204,0.0,1.0,79,0.00,,,0.00,0.0,meteohub,2013-11-17 03:42:00,
2013-11-16 19:47:00,52.9,46.6,30.03,SSW,204,0.0,1.0,79,0.00,,,0.00,0.0,meteohub,2013-11-17 03:47:00,
2013-11-16 19:52:00,52.7,46.4,30.03,SSW,204,0.0,1.0,79,0.00,,,0.00,0.0,meteohub,2013-11-17 03:52:00,
2013-11-16 19:57:00,52.5,46.2,30.03,SSW,192,0.0,1.0,79,0.00,,,0.00,0.0,meteohub,2013-11-17 03:57:00,
2013-11-16 20:02:00,52.5,46.6,30.03,WSW,251,5.0,5.0,80,0.00,,,0.00,0.0,meteohub,2013-11-17 04:02:00,
2013-11-16 20:07:00,52.3,46.4,30.03,SW,230,1.0,5.0,80,0.00,,,0.00,0.0,meteohub,2013-11-17 04:07:00,
2013-11-16 20:12:00,52.3,46.8,30.04,SSW,213,0.0,5.0,81,0.00,,,0.00,0.0,meteohub,2013-11-17 04:12:00,
2013-11-16 20:17:00,52.5,46.9,30.04,SW,219,0.0,5.0,81,0.00,,,0.00,0.0,meteohub,2013-11-17 04:17:00,
2013-11-16 20:22:00,52.5,46.9,30.04,SW,223,0.0,4.0,81,0.00,,,0.00,0.0,meteohub,2013-11-17 04:22:00,
2013-11-16 20:27:00,52.3,46.8,30.04,SW,225,1.0,3.0,81,0.00,,,0.00,0.0,meteohub,2013-11-17 04:27:00,
2013-11-16 20:32:00,52.3,46.8,30.04,SW,225,1.0,2.0,81,0.00,,,0.00,0.0,meteohub,2013-11-17 04:32:00,
2013-11-16 20:37:00,52.3,46.8,30.04,SW,225,0.0,2.0,81,0.00,,,0.00,0.0,meteohub,2013-11-17 04:37:00,
2013-11-16 20:42:00,52.3,46.8,30.04,SW,215,0.0,2.0,81,0.00,,,0.00,0.0,meteohub,2013-11-17 04:42:00,
2013-11-16 20:47:00,52.3,46.8,30.04,WSW,250,0.0,4.0,81,0.00,,,0.00,0.0,meteohub,2013-11-17 04:47:00,
2013-11-16 20:52:00,52.3,46.8,30.04,WSW,250,0.0,4.0,81,0.00,,,0.00,0.0,meteohub,2013-11-17 04:52:00,
2013-11-16 20:57:00,52.2,46.6,30.04,WSW,250,0.0,4.0,81,0.00,,,0.00,0.0,meteohub,2013-11-17 04:57:00,
2013-11-16 21:01:00,52.2,46.6,30.04,WSW,250,0.0,2.0,81,0.00,,,0.00,0.0,meteohub,2013-11-17 05:01:00,
2013-11-16 21:02:00,52.2,46.6,30.04,WSW,250,0.0,2.0,81,0.00,,,0.00,0.0,meteohub,2013-11-17 05:02:00,
2013-11-16 21:03:00,52.0,46.4,30.04,West,260,0.0,2.0,81,0.00,,,0.00,0.0,meteohub,2013-11-17 05:03:00,
2013-11-16 21:04:00,52.0,46.4,30.04,West,261,0.0,2.0,81,0.00,,,0.00,0.0,meteohub,2013-11-17 05:04:00,
2013-11-16 21:09:00,51.8,46.4,30.04,WSW,257,0.0,4.0,82,0.00,,,0.00,0.0,meteohub,2013-11-17 05:09:00,
2013-11-16 21:14:00,51.6,46.6,30.05,WSW,257,0.0,4.0,83,0.00,,,0.00,0.0,meteohub,2013-11-17 05:14:00,
2013-11-16 21:19:00,51.4,46.4,30.05,WSW,257,1.0,4.0,83,0.00,,,0.00,0.0,meteohub,2013-11-17 05:19:00,
2013-11-16 21:25:00,51.3,46.6,30.05,WSW,248,3.0,3.0,84,0.00,,,0.00,0.0,meteohub,2013-11-17 05:25:00,
2013-11-16 21:30:00,51.3,46.9,30.05,West,276,0.0,5.0,85,0.00,,,0.00,0.0,meteohub,2013-11-17 05:30:00,
2013-11-16 21:35:00,51.3,47.3,30.05,WSW,237,1.0,5.0,86,0.00,,,0.00,0.0,meteohub,2013-11-17 05:35:00,
2013-11-16 21:40:00,51.3,47.3,30.05,WSW,241,0.0,5.0,86,0.00,,,0.00,0.0,meteohub,2013-11-17 05:40:00,
2013-11-16 21:45:00,51.3,47.3,30.05,WSW,248,1.0,5.0,86,0.00,,,0.00,0.0,meteohub,2013-11-17 05:45:00,
2013-11-16 21:50:00,51.3,47.3,30.05,SSW,212,0.0,4.0,86,0.00,,,0.00,0.0,meteohub,2013-11-17 05:50:00,
2013-11-16 21:55:00,51.3,47.3,30.05,WSW,240,0.0,4.0,86,0.00,,,0.00,0.0,meteohub,2013-11-17 05:55:00,
2013-11-16 22:00:00,51.3,47.3,30.05,West,279,0.0,4.0,86,0.00,,,0.00,0.0,meteohub,2013-11-17 06:00:00,
2013-11-16 22:05:00,51.3,47.3,30.05,SSE,153,1.0,4.0,86,0.00,,,0.00,0.0,meteohub,2013-11-17 06:05:00,
2013-11-16 22:10:00,51.3,47.5,30.05,West,265,1.0,5.0,87,0.00,,,0.00,0.0,meteohub,2013-11-17 06:10:00,
2013-11-16 22:16:00,51.3,47.5,30.05,WSW,258,1.0,5.0,87,0.00,,,0.00,0.0,meteohub,2013-11-17 06:16:00,
2013-11-16 22:21:00,51.4,47.5,30.05,West,275,3.0,4.0,86,0.00,,,0.00,0.0,meteohub,2013-11-17 06:21:00,
2013-11-16 22:26:00,51.4,47.5,30.05,WSW,251,0.0,4.0,86,0.00,,,0.00,0.0,meteohub,2013-11-17 06:26:00,
2013-11-16 22:31:00,51.4,47.5,30.05,WSW,250,0.0,3.0,86,0.00,,,0.00,0.0,meteohub,2013-11-17 06:31:00,
2013-11-16 22:36:00,51.4,47.5,30.05,WSW,242,1.0,4.0,86,0.00,,,0.00,0.0,meteohub,2013-11-17 06:36:00,
2013-11-16 22:41:00,51.3,47.3,30.06,West,264,0.0,4.0,86,0.00,,,0.00,0.0,meteohub,2013-11-17 06:41:00,
2013-11-16 22:46:00,51.3,47.3,30.05,South,185,0.0,5.0,86,0.00,,,0.00,0.0,meteohub,2013-11-17 06:46:00,
2013-11-16 22:51:00,51.3,47.3,30.05,SW,223,2.0,5.0,86,0.00,,,0.00,0.0,meteohub,2013-11-17 06:51:00,
2013-11-16 22:56:00,51.1,47.1,30.05,SW,223,1.0,5.0,86,0.00,,,0.00,0.0,meteohub,2013-11-17 06:56:00,
2013-11-16 23:01:00,51.1,47.1,30.05,SW,215,1.0,5.0,86,0.00,,,0.00,0.0,meteohub,2013-11-17 07:01:00,
2013-11-16 23:06:00,50.9,46.9,30.05,SW,229,0.0,3.0,86,0.00,,,0.00,0.0,meteohub,2013-11-17 07:06:00,
2013-11-16 23:11:00,50.7,46.8,30.05,SW,229,0.0,3.0,86,0.00,,,0.00,0.0,meteohub,2013-11-17 07:11:00,
2013-11-16 23:16:00,50.7,46.8,30.05,SW,229,0.0,3.0,86,0.00,,,0.00,0.0,meteohub,2013-11-17 07:16:00,
2013-11-16 23:22:00,50.7,46.8,30.06,SW,229,0.0,1.0,86,0.00,,,0.00,0.0,meteohub,2013-11-17 07:22:00,
2013-11-16 23:27:00,50.5,46.6,30.06,SW,229,0.0,1.0,86,0.00,,,0.00,0.0,meteohub,2013-11-17 07:27:00,
2013-11-16 23:32:00,50.5,46.6,30.06,SW,229,0.0,1.0,86,0.00,,,0.00,0.0,meteohub,2013-11-17 07:32:00,
2013-11-16 23:37:00,50.4,46.4,30.06,SW,229,0.0,1.0,86,0.00,,,0.00,0.0,meteohub,2013-11-17 07:37:00,
2013-11-16 23:42:00,50.2,46.2,30.06,SW,229,0.0,1.0,86,0.00,,,0.00,0.0,meteohub,2013-11-17 07:42:00,
2013-11-16 23:47:00,50.2,46.2,30.06,SW,229,0.0,0.0,86,0.00,,,0.00,0.0,meteohub,2013-11-17 07:47:00,
2013-11-16 23:52:00,49.8,45.9,30.06,SW,229,0.0,0.0,86,0.00,,,0.00,0.0,meteohub,2013-11-17 07:52:00,
2013-11-16 23:57:00,49.6,45.9,30.06,SW,229,1.0,1.0,87,0.00,,,0.00,0.0,meteohub,2013-11-17 07:57:00,